sensor_id;sensor_type;location;lat;lon;timestamp;pressure;altitude;pressure_sealevel;temperature;humidity
47430;BME280;33181;49.246;7.372;2023-02-22T18:36:38;98495.78;;;10.34;98.94
47430;BME280;33181;49.246;7.372;2023-02-22T18:39:04;98496.81;;;10.42;98.82
47430;BME280;33181;49.246;7.372;2023-02-22T18:41:36;98501.28;;;10.52;97.98
47430;BME280;33181;49.246;7.372;2023-02-22T18:44:04;98494.28;;;10.62;97.14
47430;BME280;33181;49.246;7.372;2023-02-22T18:46:31;98495.75;;;10.76;96.61
47430;BME280;33181;49.246;7.372;2023-02-22T18:48:57;98489.16;;;10.81;95.44
47430;BME280;33181;49.246;7.372;2023-02-22T18:51:24;98496.19;;;10.81;95.18
47430;BME280;33181;49.246;7.372;2023-02-22T18:53:51;98492.34;;;10.85;94.85
47430;BME280;33181;49.246;7.372;2023-02-22T18:56:28;98493.84;;;10.87;94.09
47430;BME280;33181;49.246;7.372;2023-02-22T18:58:56;98496.47;;;10.87;94.49
47430;BME280;33181;49.246;7.372;2023-02-22T19:01:23;98495.38;;;10.90;94.39
47430;BME280;33181;49.246;7.372;2023-02-22T19:03:50;98492.66;;;10.92;94.19
47430;BME280;33181;49.246;7.372;2023-02-22T19:06:17;98492.78;;;11.00;93.92
47430;BME280;33181;49.246;7.372;2023-02-22T19:08:45;98498.19;;;10.98;93.79
47430;BME280;33181;49.246;7.372;2023-02-22T19:11:22;98495.56;;;10.98;93.78
47430;BME280;33181;49.246;7.372;2023-02-22T19:13:51;98496.13;;;11.02;94.03
47430;BME280;33181;49.246;7.372;2023-02-22T19:16:19;98499.06;;;11.08;93.59
47430;BME280;33181;49.246;7.372;2023-02-22T19:18:47;98500.09;;;10.86;95.12
47430;BME280;33181;49.246;7.372;2023-02-22T19:21:14;98500.75;;;10.79;96.13
47430;BME280;33181;49.246;7.372;2023-02-22T19:23:42;98497.84;;;10.82;96.78
47430;BME280;33181;49.246;7.372;2023-02-22T19:26:15;98502.97;;;10.83;96.58
47430;BME280;33181;49.246;7.372;2023-02-22T19:28:46;98499.00;;;10.89;96.04
47430;BME280;33181;49.246;7.372;2023-02-22T19:31:27;98498.69;;;10.82;96.76
47430;BME280;33181;49.246;7.372;2023-02-22T19:34:00;98500.75;;;10.79;97.97
47430;BME280;33181;49.246;7.372;2023-02-22T19:36:26;98495.72;;;10.66;100.00
47430;BME280;33181;49.246;7.372;2023-02-22T19:38:52;98499.84;;;10.68;100.00
47430;BME280;33181;49.246;7.372;2023-02-22T19:41:21;98498.50;;;10.74;100.00
47430;BME280;33181;49.246;7.372;2023-02-22T19:43:49;98495.31;;;10.71;100.00
47430;BME280;33181;49.246;7.372;2023-02-22T19:46:15;98499.94;;;10.57;100.00
47430;BME280;33181;49.246;7.372;2023-02-22T19:48:48;98496.88;;;10.52;100.00
47430;BME280;33181;49.246;7.372;2023-02-22T19:51:17;98491.53;;;10.63;100.00
47430;BME280;33181;49.246;7.372;2023-02-22T19:53:45;98495.56;;;10.67;100.00
47430;BME280;33181;49.246;7.372;2023-02-22T19:56:12;98493.41;;;10.73;100.00
47430;BME280;33181;49.246;7.372;2023-02-22T19:58:39;98491.81;;;10.60;100.00
47430;BME280;33181;49.246;7.372;2023-02-22T20:01:13;98493.47;;;10.61;100.00
47430;BME280;33181;49.246;7.372;2023-02-22T20:03:40;98492.69;;;10.71;100.00
47430;BME280;33181;49.246;7.372;2023-02-22T20:06:09;98498.38;;;10.76;100.00
47430;BME280;33181;49.246;7.372;2023-02-22T20:08:37;98495.75;;;10.76;100.00
47430;BME280;33181;49.246;7.372;2023-02-22T20:11:08;98496.91;;;10.62;100.00
47430;BME280;33181;49.246;7.372;2023-02-22T20:13:35;98498.06;;;10.69;100.00
47430;BME280;33181;49.246;7.372;2023-02-22T20:16:02;98497.66;;;10.74;100.00
47430;BME280;33181;49.246;7.372;2023-02-22T20:18:28;98492.56;;;10.72;100.00
47430;BME280;33181;49.246;7.372;2023-02-22T20:20:54;98492.94;;;10.67;100.00
47430;BME280;33181;49.246;7.372;2023-02-22T20:23:20;98495.97;;;10.63;100.00
47430;BME280;33181;49.246;7.372;2023-02-22T20:25:56;98495.97;;;10.63;100.00
47430;BME280;33181;49.246;7.372;2023-02-22T20:28:22;98499.22;;;10.55;100.00
47430;BME280;33181;49.246;7.372;2023-02-22T20:30:49;98497.31;;;10.57;100.00
47430;BME280;33181;49.246;7.372;2023-02-22T20:33:20;98501.91;;;10.65;100.00
47430;BME280;33181;49.246;7.372;2023-02-22T20:35:46;98505.91;;;10.59;100.00
47430;BME280;33181;49.246;7.372;2023-02-22T20:38:15;98496.22;;;10.60;100.00
47430;BME280;33181;49.246;7.372;2023-02-22T20:40:43;98497.06;;;10.60;100.00
47430;BME280;33181;49.246;7.372;2023-02-22T20:43:11;98495.22;;;10.51;100.00
47430;BME280;33181;49.246;7.372;2023-02-22T20:45:38;98495.47;;;10.48;100.00
47430;BME280;33181;49.246;7.372;2023-02-22T20:48:04;98496.56;;;10.46;100.00
47430;BME280;33181;49.246;7.372;2023-02-22T20:50:30;98499.25;;;10.34;100.00
47430;BME280;33181;49.246;7.372;2023-02-22T20:52:57;98496.91;;;10.31;100.00
47430;BME280;33181;49.246;7.372;2023-02-22T20:55:24;98492.22;;;10.24;100.00
47430;BME280;33181;49.246;7.372;2023-02-22T20:57:50;98505.75;;;10.19;100.00
47430;BME280;33181;49.246;7.372;2023-02-22T21:00:16;98501.44;;;10.18;100.00
47430;BME280;33181;49.246;7.372;2023-02-22T21:02:43;98499.22;;;10.13;100.00
47430;BME280;33181;49.246;7.372;2023-02-22T21:05:12;98502.56;;;10.15;100.00
47430;BME280;33181;49.246;7.372;2023-02-22T21:07:41;98505.53;;;10.11;100.00
47430;BME280;33181;49.246;7.372;2023-02-22T21:10:07;98500.69;;;10.06;100.00
47430;BME280;33181;49.246;7.372;2023-02-22T21:12:34;98504.47;;;10.13;100.00
47430;BME280;33181;49.246;7.372;2023-02-22T21:15:00;98501.09;;;10.23;100.00
47430;BME280;33181;49.246;7.372;2023-02-22T21:17:26;98500.34;;;10.32;100.00
47430;BME280;33181;49.246;7.372;2023-02-22T21:19:56;98495.09;;;10.32;100.00
47430;BME280;33181;49.246;7.372;2023-02-22T21:22:23;98492.53;;;10.41;100.00
47430;BME280;33181;49.246;7.372;2023-02-22T21:24:50;98488.56;;;10.47;100.00
47430;BME280;33181;49.246;7.372;2023-02-22T21:27:16;98494.91;;;10.44;100.00
47430;BME280;33181;49.246;7.372;2023-02-22T21:29:42;98491.56;;;10.42;100.00
47430;BME280;33181;49.246;7.372;2023-02-22T21:32:08;98494.75;;;10.46;100.00
47430;BME280;33181;49.246;7.372;2023-02-22T21:34:34;98494.31;;;10.41;100.00
47430;BME280;33181;49.246;7.372;2023-02-22T21:37:01;98499.16;;;10.25;100.00
47430;BME280;33181;49.246;7.372;2023-02-22T21:39:26;98490.56;;;10.23;100.00
47430;BME280;33181;49.246;7.372;2023-02-22T21:41:56;98495.56;;;10.26;100.00
47430;BME280;33181;49.246;7.372;2023-02-22T21:44:26;98493.00;;;10.14;100.00
47430;BME280;33181;49.246;7.372;2023-02-22T21:46:51;98501.44;;;10.18;100.00
47430;BME280;33181;49.246;7.372;2023-02-22T21:49:18;98488.56;;;10.15;100.00
47430;BME280;33181;49.246;7.372;2023-02-22T21:51:47;98490.84;;;10.19;100.00
47430;BME280;33181;49.246;7.372;2023-02-22T21:54:12;98489.88;;;10.20;100.00
47430;BME280;33181;49.246;7.372;2023-02-22T21:56:41;98497.97;;;10.29;100.00
47430;BME280;33181;49.246;7.372;2023-02-22T21:59:16;98483.78;;;10.31;100.00
47430;BME280;33181;49.246;7.372;2023-02-22T22:01:53;98490.84;;;10.19;100.00
47430;BME280;33181;49.246;7.372;2023-02-22T22:04:28;98489.38;;;10.27;100.00
47430;BME280;33181;49.246;7.372;2023-02-22T22:06:57;98490.25;;;10.16;100.00
47430;BME280;33181;49.246;7.372;2023-02-22T22:09:25;98490.44;;;10.03;100.00
47430;BME280;33181;49.246;7.372;2023-02-22T22:11:58;98488.25;;;10.08;100.00
47430;BME280;33181;49.246;7.372;2023-02-22T22:14:31;98485.25;;;10.13;100.00
47430;BME280;33181;49.246;7.372;2023-02-22T22:16:59;98484.03;;;10.17;100.00
47430;BME280;33181;49.246;7.372;2023-02-22T22:19:28;98475.91;;;10.20;100.00
47430;BME280;33181;49.246;7.372;2023-02-22T22:21:55;98479.09;;;10.24;100.00
47430;BME280;33181;49.246;7.372;2023-02-22T22:24:22;98471.84;;;10.27;100.00
47430;BME280;33181;49.246;7.372;2023-02-22T22:26:52;98474.47;;;10.27;100.00
47430;BME280;33181;49.246;7.372;2023-02-22T22:29:22;98468.69;;;10.33;100.00
47430;BME280;33181;49.246;7.372;2023-02-22T22:31:50;98471.59;;;10.30;100.00
47430;BME280;33181;49.246;7.372;2023-02-22T22:34:16;98466.59;;;10.27;100.00
47430;BME280;33181;49.246;7.372;2023-02-22T22:36:42;98471.94;;;10.26;100.00
47430;BME280;33181;49.246;7.372;2023-02-22T22:39:08;98467.16;;;10.31;100.00
47430;BME280;33181;49.246;7.372;2023-02-22T22:41:45;98467.75;;;10.34;100.00
47430;BME280;33181;49.246;7.372;2023-02-22T22:44:12;98461.41;;;10.37;100.00
47430;BME280;33181;49.246;7.372;2023-02-22T22:46:41;98462.81;;;10.41;100.00
47430;BME280;33181;49.246;7.372;2023-02-22T22:49:12;98457.44;;;10.42;100.00
47430;BME280;33181;49.246;7.372;2023-02-22T22:51:39;98463.91;;;10.38;100.00
47430;BME280;33181;49.246;7.372;2023-02-22T22:54:06;98464.72;;;10.39;100.00
47430;BME280;33181;49.246;7.372;2023-02-22T22:56:34;98460.19;;;10.41;100.00
47430;BME280;33181;49.246;7.372;2023-02-22T22:59:04;98461.84;;;10.42;100.00
47430;BME280;33181;49.246;7.372;2023-02-22T23:01:35;98462.94;;;10.39;100.00
47430;BME280;33181;49.246;7.372;2023-02-22T23:04:16;98460.44;;;10.38;100.00
47430;BME280;33181;49.246;7.372;2023-02-22T23:06:48;98463.50;;;10.43;100.00
47430;BME280;33181;49.246;7.372;2023-02-22T23:09:21;98461.03;;;10.41;100.00
47430;BME280;33181;49.246;7.372;2023-02-22T23:11:57;98460.97;;;10.32;100.00
47430;BME280;33181;49.246;7.372;2023-02-22T23:14:34;98459.78;;;10.25;100.00
47430;BME280;33181;49.246;7.372;2023-02-22T23:17:02;98461.78;;;10.32;100.00
47430;BME280;33181;49.246;7.372;2023-02-22T23:19:32;98462.75;;;10.31;100.00
47430;BME280;33181;49.246;7.372;2023-02-22T23:21:58;98460.31;;;10.39;100.00
47430;BME280;33181;49.246;7.372;2023-02-22T23:24:24;98458.13;;;10.44;100.00
47430;BME280;33181;49.246;7.372;2023-02-22T23:26:55;98456.06;;;10.48;100.00
47430;BME280;33181;49.246;7.372;2023-02-22T23:29:27;98453.19;;;10.51;100.00
47430;BME280;33181;49.246;7.372;2023-02-22T23:31:54;98458.31;;;10.53;100.00
47430;BME280;33181;49.246;7.372;2023-02-22T23:34:21;98453.72;;;10.45;100.00
47430;BME280;33181;49.246;7.372;2023-02-22T23:36:49;98455.88;;;10.40;100.00
47430;BME280;33181;49.246;7.372;2023-02-22T23:39:20;98452.00;;;10.34;100.00
47430;BME280;33181;49.246;7.372;2023-02-22T23:41:54;98459.56;;;10.28;100.00
47430;BME280;33181;49.246;7.372;2023-02-22T23:44:21;98453.91;;;10.32;100.00
47430;BME280;33181;49.246;7.372;2023-02-22T23:46:48;98455.31;;;10.36;100.00
47430;BME280;33181;49.246;7.372;2023-02-22T23:49:19;98455.25;;;10.27;100.00
47430;BME280;33181;49.246;7.372;2023-02-22T23:51:46;98459.91;;;10.23;100.00
47430;BME280;33181;49.246;7.372;2023-02-22T23:54:17;98459.69;;;10.26;100.00
47430;BME280;33181;49.246;7.372;2023-02-22T23:56:44;98446.06;;;10.21;100.00
47430;BME280;33181;49.246;7.372;2023-02-22T23:59:24;98449.09;;;10.16;100.00
